RYR7477 GCTS-LIRP
Flight info
| Callsign | RYR7477 |
|---|---|
| Flight time | N/A |
| Altitude | 34000 |
| Route | KORAL DCT SONSO DCT NIRAL UN871 OSDAM UM985 BARPA M985 PIMOS M445 SOPET M985 BCN N870 DIBER DCT TORTU DCT KONER |
| Aircraft | B738/M-SDE2E3FGHIRWXY/LB1 |
Departure
| Time | N/A |
|---|---|
| Airport | Tenerife Sur Airport (GCTS) |
Arrival
| Time | 2026-04-27 12:12 |
|---|---|
| Airport | Pisa International Airport (LIRP) |
| Time | Latitude | Longitude | Altitude | Speed | Heading |
|---|---|---|---|---|---|
| 2026-04-27 11:46 | 43.06619 | 7.76084 | 34109 ft | 410 kts | 68° |
| 2026-04-27 11:46 | 43.07638 | 7.79780 | 34108 ft | 409 kts | 68° |
| 2026-04-27 11:46 | 43.09634 | 7.87040 | 34113 ft | 409 kts | 68° |
| 2026-04-27 11:47 | 43.11630 | 7.94320 | 34098 ft | 411 kts | 68° |
| 2026-04-27 11:47 | 43.13628 | 8.01630 | 34119 ft | 410 kts | 68° |
| 2026-04-27 11:48 | 43.15606 | 8.08890 | 34094 ft | 404 kts | 68° |
| 2026-04-27 11:48 | 43.16562 | 8.12411 | 33877 ft | 395 kts | 68° |
| 2026-04-27 11:48 | 43.17508 | 8.15902 | 33510 ft | 390 kts | 68° |
| 2026-04-27 11:49 | 43.18448 | 8.19371 | 33063 ft | 387 kts | 68° |
| 2026-04-27 11:49 | 43.19382 | 8.22821 | 32609 ft | 384 kts | 68° |
| 2026-04-27 11:49 | 43.20303 | 8.26225 | 32152 ft | 387 kts | 68° |
| 2026-04-27 11:49 | 43.21242 | 8.29698 | 31696 ft | 389 kts | 68° |
| 2026-04-27 11:50 | 43.22171 | 8.33143 | 31228 ft | 386 kts | 68° |
| 2026-04-27 11:50 | 43.23094 | 8.36571 | 30770 ft | 382 kts | 68° |
| 2026-04-27 11:50 | 43.24009 | 8.39975 | 30317 ft | 379 kts | 69° |
| 2026-04-27 11:50 | 43.24907 | 8.43321 | 29864 ft | 376 kts | 69° |
| 2026-04-27 11:51 | 43.25804 | 8.46667 | 29409 ft | 372 kts | 69° |
| 2026-04-27 11:51 | 43.26682 | 8.49949 | 28968 ft | 369 kts | 69° |
| 2026-04-27 11:51 | 43.28425 | 8.56472 | 28083 ft | 362 kts | 69° |
| 2026-04-27 11:52 | 43.29283 | 8.59692 | 27647 ft | 359 kts | 69° |
| 2026-04-27 11:52 | 43.30131 | 8.62875 | 27217 ft | 356 kts | 69° |
| 2026-04-27 11:52 | 43.30984 | 8.66083 | 26788 ft | 360 kts | 69° |
| 2026-04-27 11:52 | 43.31843 | 8.69313 | 26347 ft | 362 kts | 69° |
| 2026-04-27 11:53 | 43.32695 | 8.72526 | 25906 ft | 359 kts | 69° |
| 2026-04-27 11:53 | 43.33540 | 8.75717 | 25475 ft | 355 kts | 69° |
| 2026-04-27 11:53 | 43.34375 | 8.78873 | 25050 ft | 352 kts | 69° |
| 2026-04-27 11:53 | 43.35201 | 8.82002 | 24623 ft | 348 kts | 69° |
| 2026-04-27 11:54 | 43.36029 | 8.85140 | 24196 ft | 345 kts | 69° |
| 2026-04-27 11:54 | 43.36836 | 8.88203 | 23779 ft | 343 kts | 69° |
| 2026-04-27 11:54 | 43.37644 | 8.91273 | 23367 ft | 348 kts | 70° |
| 2026-04-27 11:54 | 43.38465 | 8.94395 | 22934 ft | 349 kts | 69° |
| 2026-04-27 11:55 | 43.39262 | 8.97544 | 22508 ft | 346 kts | 71° |
| 2026-04-27 11:55 | 43.39952 | 9.00689 | 22086 ft | 343 kts | 73° |
| 2026-04-27 11:55 | 43.40584 | 9.03829 | 21668 ft | 340 kts | 74° |
| 2026-04-27 11:55 | 43.41196 | 9.06940 | 21254 ft | 337 kts | 74° |
| 2026-04-27 11:56 | 43.41798 | 9.09996 | 20846 ft | 334 kts | 74° |
| 2026-04-27 11:56 | 43.42411 | 9.13077 | 20434 ft | 331 kts | 73° |
| 2026-04-27 11:56 | 43.43018 | 9.16100 | 20031 ft | 328 kts | 73° |
| 2026-04-27 11:56 | 43.43623 | 9.19098 | 19624 ft | 326 kts | 73° |
| 2026-04-27 11:57 | 43.44230 | 9.22089 | 19231 ft | 331 kts | 73° |
| 2026-04-27 11:57 | 43.44853 | 9.25156 | 18811 ft | 333 kts | 73° |
| 2026-04-27 11:57 | 43.45467 | 9.28181 | 18406 ft | 329 kts | 73° |
| 2026-04-27 11:57 | 43.46078 | 9.31194 | 18003 ft | 327 kts | 73° |
| 2026-04-27 11:58 | 43.46683 | 9.34181 | 17603 ft | 324 kts | 73° |
| 2026-04-27 11:58 | 43.47288 | 9.37172 | 17199 ft | 321 kts | 73° |
| 2026-04-27 11:58 | 43.47872 | 9.40064 | 16808 ft | 318 kts | 73° |
| 2026-04-27 11:58 | 43.48468 | 9.43013 | 16412 ft | 315 kts | 73° |
| 2026-04-27 11:59 | 43.49043 | 9.45869 | 16027 ft | 312 kts | 73° |
| 2026-04-27 11:59 | 43.49612 | 9.48700 | 15643 ft | 309 kts | 73° |
| 2026-04-27 11:59 | 43.50183 | 9.51538 | 15260 ft | 305 kts | 73° |
| 2026-04-27 11:59 | 43.50758 | 9.54366 | 14875 ft | 302 kts | 72° |
| 2026-04-27 12:00 | 43.51339 | 9.57096 | 14504 ft | 299 kts | 72° |
| 2026-04-27 12:00 | 43.51926 | 9.59791 | 14137 ft | 295 kts | 72° |
| 2026-04-27 12:00 | 43.52520 | 9.62513 | 13765 ft | 292 kts | 72° |
| 2026-04-27 12:00 | 43.53097 | 9.65172 | 13405 ft | 292 kts | 73° |
| 2026-04-27 12:01 | 43.53678 | 9.67861 | 13033 ft | 297 kts | 73° |
| 2026-04-27 12:01 | 43.54265 | 9.70595 | 12659 ft | 295 kts | 73° |
| 2026-04-27 12:01 | 43.54835 | 9.73257 | 12297 ft | 292 kts | 73° |
| 2026-04-27 12:01 | 43.55407 | 9.75935 | 11929 ft | 289 kts | 73° |
| 2026-04-27 12:02 | 43.55964 | 9.78543 | 11570 ft | 286 kts | 73° |
| 2026-04-27 12:02 | 43.56524 | 9.81164 | 11215 ft | 284 kts | 73° |
| 2026-04-27 12:02 | 43.57071 | 9.83733 | 11111 ft | 276 kts | 73° |
| 2026-04-27 12:02 | 43.57606 | 9.86245 | 10770 ft | 275 kts | 74° |
| 2026-04-27 12:03 | 43.58147 | 9.88794 | 10326 ft | 277 kts | 74° |
| 2026-04-27 12:03 | 43.58683 | 9.91317 | 9979 ft | 275 kts | 74° |
| 2026-04-27 12:03 | 43.59179 | 9.93844 | 9736 ft | 269 kts | 79° |
| 2026-04-27 12:03 | 43.59299 | 9.96332 | 9588 ft | 258 kts | 99° |
| 2026-04-27 12:04 | 43.58645 | 9.98576 | 9369 ft | 251 kts | 124° |
| 2026-04-27 12:04 | 43.57581 | 10.00472 | 9024 ft | 251 kts | 129° |
| 2026-04-27 12:04 | 43.56476 | 10.02326 | 8703 ft | 249 kts | 128° |
| 2026-04-27 12:04 | 43.55402 | 10.04209 | 8247 ft | 250 kts | 127° |
| 2026-04-27 12:05 | 43.54378 | 10.06074 | 7984 ft | 241 kts | 127° |
| 2026-04-27 12:05 | 43.53387 | 10.07909 | 7693 ft | 232 kts | 127° |
| 2026-04-27 12:05 | 43.52456 | 10.09637 | 7346 ft | 223 kts | 127° |
| 2026-04-27 12:05 | 43.51552 | 10.11312 | 6984 ft | 216 kts | 127° |
| 2026-04-27 12:06 | 43.50658 | 10.12965 | 6621 ft | 210 kts | 127° |
| 2026-04-27 12:06 | 43.49801 | 10.14558 | 6270 ft | 206 kts | 125° |
| 2026-04-27 12:06 | 43.49157 | 10.16247 | 5928 ft | 200 kts | 105° |
| 2026-04-27 12:06 | 43.49148 | 10.18131 | 5597 ft | 198 kts | 76° |
| 2026-04-27 12:07 | 43.49675 | 10.19869 | 5232 ft | 199 kts | 59° |
| 2026-04-27 12:07 | 43.50597 | 10.21290 | 4861 ft | 201 kts | 38° |
| 2026-04-27 12:07 | 43.51737 | 10.22390 | 4475 ft | 202 kts | 34° |
| 2026-04-27 12:07 | 43.52897 | 10.23502 | 4076 ft | 202 kts | 36° |
| 2026-04-27 12:08 | 43.54019 | 10.24633 | 3701 ft | 198 kts | 37° |
| 2026-04-27 12:08 | 43.55091 | 10.25767 | 3336 ft | 195 kts | 38° |
| 2026-04-27 12:08 | 43.56162 | 10.26910 | 2980 ft | 192 kts | 37° |
| 2026-04-27 12:08 | 43.57215 | 10.27988 | 2639 ft | 189 kts | 36° |
| 2026-04-27 12:09 | 43.58273 | 10.29063 | 2269 ft | 187 kts | 37° |
| 2026-04-27 12:09 | 43.59309 | 10.30127 | 1952 ft | 183 kts | 37° |
| 2026-04-27 12:09 | 43.60301 | 10.31144 | 1735 ft | 171 kts | 37° |
| 2026-04-27 12:09 | 43.61212 | 10.32076 | 1506 ft | 159 kts | 37° |
| 2026-04-27 12:10 | 43.62083 | 10.32970 | 1305 ft | 154 kts | 36° |
| 2026-04-27 12:10 | 43.62931 | 10.33836 | 1157 ft | 152 kts | 35° |
| 2026-04-27 12:10 | 43.63813 | 10.34712 | 946 ft | 155 kts | 34° |
| 2026-04-27 12:10 | 43.64680 | 10.35619 | 699 ft | 158 kts | 37° |
| 2026-04-27 12:11 | 43.65547 | 10.36534 | 483 ft | 157 kts | 35° |
| 2026-04-27 12:11 | 43.66434 | 10.37430 | 294 ft | 157 kts | 35° |
| 2026-04-27 12:11 | 43.67305 | 10.38323 | 73 ft | 156 kts | 34° |
| 2026-04-27 12:11 | 43.68127 | 10.39166 | 17 ft | 123 kts | 37° |
| 2026-04-27 12:12 | 43.68620 | 10.39674 | 21 ft | 59 kts | 36° |
| 2026-04-27 12:12 | 43.68900 | 10.39963 | 22 ft | 47 kts | 37° |
| 2026-04-27 12:12 | 43.69161 | 10.40233 | 22 ft | 44 kts | 36° |
| 2026-04-27 12:12 | 43.69276 | 10.40313 | 22 ft | 6 kts | 317° |
| 2026-04-27 12:13 | 43.69307 | 10.40250 | 22 ft | 8 kts | 301° |
| 2026-04-27 12:13 | 43.69340 | 10.40183 | 22 ft | 9 kts | 306° |
| 2026-04-27 12:13 | 43.69385 | 10.40113 | 22 ft | 10 kts | 330° |
| 2026-04-27 12:13 | 43.69459 | 10.40090 | 22 ft | 11 kts | 351° |
| 2026-04-27 12:14 | 43.69542 | 10.40074 | 23 ft | 12 kts | 352° |
| 2026-04-27 12:14 | 43.69626 | 10.40058 | 25 ft | 11 kts | 351° |
| 2026-04-27 12:14 | 43.69687 | 10.40070 | 25 ft | 8 kts | 25° |
| 2026-04-27 12:14 | 43.69748 | 10.40089 | 25 ft | 6 kts | 8° |
| 2026-04-27 12:15 | 43.69755 | 10.40090 | 25 ft | 0 kts | 9° |